Time;durP1;ratioP1;P1;durP2;ratioP2;P2;SDS_P1;SDS_P2;PMS_P1;PMS_P2;Temp;Humidity;BMP_temperature;BMP_pressure;BME280_temperature;BME280_humidity;BME280_pressure;Samples;Min_cycle;Max_cycle;Signal;HPM_P1;HPM_P2
2021/07/06 00:01:44;;;;;;;3.15;1.55;;;;;;;;;;5065198;28;20464;-88
2021/07/06 00:04:10;;;;;;;2.13;1.17;;;;;;;;;;5069440;28;20477;-87
2021/07/06 00:06:35;;;;;;;5.75;1.00;;;;;;;;;;5071697;28;20028;-88
2021/07/06 00:09:02;;;;;;;3.08;0.98;;;;;;;;;;5071446;28;20024;-87
2021/07/06 00:11:27;;;;;;;6.05;1.08;;;;;;;;;;5071346;28;20122;-87
2021/07/06 00:13:52;;;;;;;7.55;1.10;;;;;;;;;;5071498;28;20020;-87
2021/07/06 00:16:18;;;;;;;3.45;1.70;;;;;;;;;;5059557;28;20036;-87
2021/07/06 00:18:43;;;;;;;7.40;1.35;;;;;;;;;;5071422;28;20070;-87
2021/07/06 00:21:08;;;;;;;8.63;1.30;;;;;;;;;;5071470;28;20155;-87
2021/07/06 00:23:34;;;;;;;3.13;1.00;;;;;;;;;;5072539;28;20013;-87
2021/07/06 00:25:59;;;;;;;4.53;1.35;;;;;;;;;;5071502;28;20040;-88
2021/07/06 00:28:24;;;;;;;2.38;1.10;;;;;;;;;;5071285;28;20424;-87
2021/07/06 00:30:52;;;;;;;9.48;1.23;;;;;;;;;;5057098;28;20163;-88
2021/07/06 00:33:18;;;;;;;1.52;1.10;;;;;;;;;;5051468;28;20036;-88
2021/07/06 00:35:43;;;;;;;2.67;1.20;;;;;;;;;;5071551;28;20013;-88
2021/07/06 00:38:09;;;;;;;0.35;0.17;;;;;;;;;;5066742;28;20040;-88
2021/07/06 00:40:34;;;;;;;2.53;1.20;;;;;;;;;;5070972;28;20048;-88
2021/07/06 00:42:59;;;;;;;2.33;1.08;;;;;;;;;;5071314;28;20025;-88
2021/07/06 00:45:25;;;;;;;2.65;1.13;;;;;;;;;;5071068;28;20025;-88
2021/07/06 00:47:51;;;;;;;3.53;1.38;;;;;;;;;;5074635;28;20020;-88
2021/07/06 00:50:20;;;;;;;7.03;1.00;;;;;;;;;;5075921;28;20025;-88
2021/07/06 00:52:45;;;;;;;2.72;1.17;;;;;;;;;;5074856;28;20020;-88
2021/07/06 00:55:11;;;;;;;1.30;1.17;;;;;;;;;;5074667;28;20025;-88
2021/07/06 00:57:37;;;;;;;3.50;1.40;;;;;;;;;;5074633;28;20411;-88
2021/07/06 01:00:09;;;;;;;4.88;1.10;;;;;;;;;;5071980;28;20020;-88
2021/07/06 01:02:35;;;;;;;6.60;1.35;;;;;;;;;;5061084;28;20024;-88
2021/07/06 01:05:00;;;;;;;5.95;1.30;;;;;;;;;;5073669;28;20020;-88
2021/07/06 01:07:25;;;;;;;7.32;2.25;;;;;;;;;;5068474;28;20028;-87
2021/07/06 01:09:51;;;;;;;1.67;1.33;;;;;;;;;;5061758;28;20013;-88
2021/07/06 01:12:16;;;;;;;1.60;1.10;;;;;;;;;;5074284;28;20020;-88
2021/07/06 01:14:41;;;;;;;2.15;1.00;;;;;;;;;;5065665;28;20020;-88
2021/07/06 01:17:08;;;;;;;11.05;1.20;;;;;;;;;;5075620;28;20103;-88
2021/07/06 01:19:33;;;;;;;1.83;1.10;;;;;;;;;;5074325;28;20021;-88
2021/07/06 01:22:03;;;;;;;1.70;1.00;;;;;;;;;;5075242;28;20030;-88
2021/07/06 01:24:28;;;;;;;1.35;1.05;;;;;;;;;;5074281;28;20024;-89
2021/07/06 01:26:53;;;;;;;2.35;1.40;;;;;;;;;;5075266;28;20047;-88
2021/07/06 01:29:20;;;;;;;1.25;1.00;;;;;;;;;;5056699;28;20017;-88
2021/07/06 01:31:49;;;;;;;3.72;1.10;;;;;;;;;;5055738;28;20480;-88
2021/07/06 01:34:14;;;;;;;1.35;1.10;;;;;;;;;;5074059;28;20021;-88
2021/07/06 01:36:40;;;;;;;2.28;1.27;;;;;;;;;;5059722;28;20456;-87
2021/07/06 01:39:05;;;;;;;1.20;1.10;;;;;;;;;;5056983;28;20029;-88
2021/07/06 01:41:30;;;;;;;3.30;1.15;;;;;;;;;;5065386;28;20029;-88
2021/07/06 01:43:56;;;;;;;2.45;1.08;;;;;;;;;;5062094;28;20020;-88
2021/07/06 01:46:21;;;;;;;3.50;1.17;;;;;;;;;;5075092;28;20073;-88
2021/07/06 01:48:46;;;;;;;3.08;1.10;;;;;;;;;;5073448;28;20047;-87
2021/07/06 01:51:11;;;;;;;2.00;1.10;;;;;;;;;;5074743;28;20021;-88
2021/07/06 01:53:36;;;;;;;5.10;1.20;;;;;;;;;;5074952;28;20479;-88
2021/07/06 01:56:02;;;;;;;2.17;1.13;;;;;;;;;;5073279;28;20039;-88
2021/07/06 01:58:28;;;;;;;2.53;1.10;;;;;;;;;;5070438;28;20023;-87
2021/07/06 02:00:57;;;;;;;5.00;1.20;;;;;;;;;;5064647;28;20035;-87
2021/07/06 02:03:23;;;;;;;6.38;1.15;;;;;;;;;;5054602;28;20033;-88
2021/07/06 02:30:03;;;;;;;4.15;0.90;;;;;;;;;;5059165;28;20621;-88
2021/07/06 02:32:28;;;;;;;2.15;0.82;;;;;;;;;;5073057;28;20491;-88
2021/07/06 02:34:53;;;;;;;1.90;1.40;;;;;;;;;;5072966;28;20017;-88
2021/07/06 02:37:19;;;;;;;10.90;1.08;;;;;;;;;;5072677;28;20012;-88
2021/07/06 02:39:45;;;;;;;2.42;1.10;;;;;;;;;;5071211;28;20051;-88
2021/07/06 02:42:11;;;;;;;2.35;1.17;;;;;;;;;;5054415;28;20530;-87
2021/07/06 02:44:36;;;;;;;4.10;1.15;;;;;;;;;;5052380;28;20036;-88
2021/07/06 02:47:01;;;;;;;2.97;0.90;;;;;;;;;;5052435;28;20425;-88
2021/07/06 02:49:26;;;;;;;1.42;0.95;;;;;;;;;;5052292;28;20029;-88
2021/07/06 02:51:51;;;;;;;4.65;1.27;;;;;;;;;;5052213;28;20028;-87
2021/07/06 02:54:17;;;;;;;3.85;1.00;;;;;;;;;;5052606;28;20059;-88
2021/07/06 02:56:42;;;;;;;2.97;1.23;;;;;;;;;;5053508;28;20021;-88
2021/07/06 02:59:07;;;;;;;6.38;1.40;;;;;;;;;;5052157;28;20025;-88
2021/07/06 03:01:32;;;;;;;2.88;1.02;;;;;;;;;;5052100;28;20044;-88
2021/07/06 03:03:57;;;;;;;2.63;1.20;;;;;;;;;;5052403;28;20527;-88
2021/07/06 03:06:23;;;;;;;2.72;1.10;;;;;;;;;;5053492;28;20502;-88
2021/07/06 03:08:49;;;;;;;3.00;1.10;;;;;;;;;;5051838;28;20032;-88
2021/07/06 03:11:14;;;;;;;4.18;1.20;;;;;;;;;;5051551;28;20388;-88
2021/07/06 03:13:39;;;;;;;2.45;1.23;;;;;;;;;;5052250;28;20384;-88
2021/07/06 03:16:05;;;;;;;6.28;0.93;;;;;;;;;;5052163;28;20048;-88
2021/07/06 03:18:30;;;;;;;2.67;1.02;;;;;;;;;;5051883;28;20381;-88
2021/07/06 03:20:55;;;;;;;4.20;1.15;;;;;;;;;;5051904;28;20387;-88
2021/07/06 03:23:20;;;;;;;2.00;1.10;;;;;;;;;;5051951;28;20028;-89
2021/07/06 03:25:45;;;;;;;5.70;1.33;;;;;;;;;;5052913;28;20457;-89
2021/07/06 03:28:11;;;;;;;4.70;1.20;;;;;;;;;;5051889;28;20025;-88
2021/07/06 03:30:37;;;;;;;2.17;1.10;;;;;;;;;;5052697;28;20021;-88
2021/07/06 03:33:04;;;;;;;8.15;1.20;;;;;;;;;;5052011;28;20062;-88
2021/07/06 03:35:29;;;;;;;5.28;1.20;;;;;;;;;;5051979;28;20468;-88
2021/07/06 03:37:55;;;;;;;3.75;1.10;;;;;;;;;;5051382;28;20025;-88
2021/07/06 03:40:20;;;;;;;4.40;1.10;;;;;;;;;;5051601;28;20025;-88
2021/07/06 03:42:46;;;;;;;3.25;1.40;;;;;;;;;;5051530;28;20021;-88
2021/07/06 03:45:12;;;;;;;5.07;1.00;;;;;;;;;;5051430;28;20108;-88
2021/07/06 03:47:38;;;;;;;1.95;0.90;;;;;;;;;;5051631;28;20040;-88
2021/07/06 03:50:04;;;;;;;6.93;1.05;;;;;;;;;;5052686;28;20416;-88
2021/07/06 03:52:29;;;;;;;5.65;1.30;;;;;;;;;;5051534;28;20067;-89
2021/07/06 03:54:55;;;;;;;6.38;0.95;;;;;;;;;;5085045;28;20025;-88
2021/07/06 03:57:28;;;;;;;4.80;1.00;;;;;;;;;;5051735;28;20103;-88
2021/07/06 03:59:55;;;;;;;4.15;1.00;;;;;;;;;;5052592;28;20455;-88
2021/07/06 04:02:20;;;;;;;2.40;1.25;;;;;;;;;;5051836;28;20119;-88
2021/07/06 04:04:45;;;;;;;4.25;0.90;;;;;;;;;;5052753;28;20049;-89
2021/07/06 04:07:10;;;;;;;6.15;1.00;;;;;;;;;;5052795;28;20041;-88
2021/07/06 04:09:35;;;;;;;6.65;1.35;;;;;;;;;;5052406;28;20520;-87
2021/07/06 04:12:00;;;;;;;6.00;1.20;;;;;;;;;;5052745;28;20031;-88
2021/07/06 04:14:26;;;;;;;4.90;1.20;;;;;;;;;;5051310;28;20392;-89
2021/07/06 04:16:51;;;;;;;2.17;1.20;;;;;;;;;;5051165;28;20028;-88
2021/07/06 04:19:16;;;;;;;10.88;1.50;;;;;;;;;;5051169;28;20106;-88
2021/07/06 04:21:41;;;;;;;8.43;1.02;;;;;;;;;;5051459;28;20361;-88
2021/07/06 04:24:06;;;;;;;6.03;1.35;;;;;;;;;;5055277;28;20017;-88
2021/07/06 04:26:32;;;;;;;8.40;1.33;;;;;;;;;;5055125;28;20028;-88
2021/07/06 04:28:57;;;;;;;9.90;1.50;;;;;;;;;;5054883;28;20039;-88
2021/07/06 04:31:22;;;;;;;5.25;1.63;;;;;;;;;;5055229;28;20025;-88
2021/07/06 04:33:47;;;;;;;15.70;2.72;;;;;;;;;;5055219;28;20025;-88
2021/07/06 04:36:13;;;;;;;9.02;1.48;;;;;;;;;;5055054;28;20017;-88
2021/07/06 04:38:38;;;;;;;8.13;1.40;;;;;;;;;;5054448;28;20074;-88
2021/07/06 04:41:03;;;;;;;4.32;1.35;;;;;;;;;;5054918;28;20032;-88
2021/07/06 04:43:28;;;;;;;4.72;1.60;;;;;;;;;;5055068;28;20465;-88
2021/07/06 04:45:53;;;;;;;5.43;1.38;;;;;;;;;;5054810;28;20057;-88
2021/07/06 04:48:19;;;;;;;9.85;1.70;;;;;;;;;;5054745;28;20056;-88
2021/07/06 04:50:44;;;;;;;3.63;1.13;;;;;;;;;;5054733;28;20021;-88
2021/07/06 04:53:10;;;;;;;6.90;1.40;;;;;;;;;;5053937;28;20021;-86
2021/07/06 04:55:36;;;;;;;10.18;1.80;;;;;;;;;;5054018;28;20017;-87
2021/07/06 04:58:02;;;;;;;5.45;1.50;;;;;;;;;;5054041;28;20037;-88
2021/07/06 05:00:27;;;;;;;5.78;1.98;;;;;;;;;;5054621;28;20029;-88
2021/07/06 05:02:52;;;;;;;8.50;1.85;;;;;;;;;;5055535;28;20025;-87
2021/07/06 05:05:18;;;;;;;4.18;1.48;;;;;;;;;;5053633;28;20021;-88
2021/07/06 05:07:44;;;;;;;8.07;1.80;;;;;;;;;;5054176;28;20031;-87
2021/07/06 05:10:11;;;;;;;7.50;1.90;;;;;;;;;;5054456;28;20021;-88
2021/07/06 05:12:36;;;;;;;5.72;1.48;;;;;;;;;;5054746;28;20147;-88
2021/07/06 05:15:03;;;;;;;4.22;1.85;;;;;;;;;;5053641;28;20052;-87
2021/07/06 05:17:28;;;;;;;4.07;1.98;;;;;;;;;;5054089;28;20024;-87
2021/07/06 05:19:53;;;;;;;10.63;2.08;;;;;;;;;;5055326;28;20380;-87
2021/07/06 05:22:19;;;;;;;16.35;2.20;;;;;;;;;;5053922;28;20009;-88
2021/07/06 05:24:44;;;;;;;5.03;1.65;;;;;;;;;;5054925;28;20507;-87
2021/07/06 05:27:09;;;;;;;4.30;2.20;;;;;;;;;;5054203;28;20025;-88
2021/07/06 05:29:34;;;;;;;4.75;1.80;;;;;;;;;;5054084;28;20032;-87
2021/07/06 05:32:00;;;;;;;12.48;2.08;;;;;;;;;;5053863;28;20049;-87
2021/07/06 05:34:26;;;;;;;6.63;1.70;;;;;;;;;;5053589;28;20158;-87
2021/07/06 05:36:53;;;;;;;2.38;1.42;;;;;;;;;;5053881;28;20481;-88
2021/07/06 05:39:18;;;;;;;3.78;1.80;;;;;;;;;;5053609;28;20021;-88
2021/07/06 05:41:43;;;;;;;5.13;1.60;;;;;;;;;;5053789;28;20032;-88
2021/07/06 05:44:09;;;;;;;6.75;1.88;;;;;;;;;;5053732;28;20460;-88
2021/07/06 05:46:34;;;;;;;5.25;1.60;;;;;;;;;;5053784;28;20021;-88
2021/07/06 05:48:59;;;;;;;4.60;1.42;;;;;;;;;;5054863;28;20098;-88
2021/07/06 05:51:25;;;;;;;5.20;1.60;;;;;;;;;;5053393;28;20380;-88
2021/07/06 05:53:50;;;;;;;5.28;1.48;;;;;;;;;;5053738;28;20017;-88
2021/07/06 05:56:19;;;;;;;2.60;1.50;;;;;;;;;;5053381;28;20419;-87
2021/07/06 05:58:44;;;;;;;3.35;1.33;;;;;;;;;;5053416;28;20065;-88
2021/07/06 06:01:09;;;;;;;2.10;1.40;;;;;;;;;;5054621;28;20414;-88
2021/07/06 06:03:35;;;;;;;2.70;1.38;;;;;;;;;;5054673;28;20099;-89
2021/07/06 06:06:01;;;;;;;4.97;1.27;;;;;;;;;;5053432;28;20450;-88
2021/07/06 06:08:26;;;;;;;2.95;1.23;;;;;;;;;;5052981;28;20103;-87
2021/07/06 06:10:51;;;;;;;3.40;1.00;;;;;;;;;;5053078;28;20112;-88
2021/07/06 06:13:16;;;;;;;1.60;1.10;;;;;;;;;;5053053;28;20017;-87
2021/07/06 06:15:42;;;;;;;1.30;1.02;;;;;;;;;;5053137;28;20025;-88
2021/07/06 06:18:07;;;;;;;4.22;1.45;;;;;;;;;;5052907;28;20028;-89
2021/07/06 06:20:32;;;;;;;3.75;1.27;;;;;;;;;;5051919;28;20021;-87
2021/07/06 06:22:57;;;;;;;4.53;1.40;;;;;;;;;;5054364;28;20040;-87
2021/07/06 06:25:23;;;;;;;4.38;0.88;;;;;;;;;;5052691;28;20157;-87
2021/07/06 06:27:48;;;;;;;8.40;1.20;;;;;;;;;;5053104;28;20043;-89
2021/07/06 06:30:13;;;;;;;2.92;0.90;;;;;;;;;;5054105;28;20498;-88
2021/07/06 06:32:39;;;;;;;3.80;1.08;;;;;;;;;;5052873;28;20021;-89
2021/07/06 06:35:04;;;;;;;2.17;1.25;;;;;;;;;;5054395;28;20361;-88
2021/07/06 06:37:30;;;;;;;3.83;1.10;;;;;;;;;;5052490;28;20025;-88
2021/07/06 06:39:55;;;;;;;1.55;0.77;;;;;;;;;;5052222;28;20025;-88
2021/07/06 06:42:20;;;;;;;1.10;0.70;;;;;;;;;;5052864;28;20021;-89
2021/07/06 06:44:45;;;;;;;1.00;0.50;;;;;;;;;;5051454;28;20075;-89
2021/07/06 06:47:11;;;;;;;3.67;0.80;;;;;;;;;;5052975;28;20025;-89
2021/07/06 06:49:37;;;;;;;2.10;0.80;;;;;;;;;;5052089;28;21900;-89
2021/07/06 06:52:02;;;;;;;0.65;0.50;;;;;;;;;;5052633;28;20021;-87
2021/07/06 06:54:27;;;;;;;3.42;0.60;;;;;;;;;;5052571;28;20066;-88
2021/07/06 06:56:52;;;;;;;2.03;0.70;;;;;;;;;;5053758;28;20021;-88
2021/07/06 06:59:18;;;;;;;0.88;0.60;;;;;;;;;;5053452;28;20146;-88
2021/07/06 07:01:44;;;;;;;4.43;0.55;;;;;;;;;;5052297;28;20098;-88
2021/07/06 07:04:09;;;;;;;6.82;0.93;;;;;;;;;;5052587;28;20021;-89
2021/07/06 07:06:35;;;;;;;2.88;0.70;;;;;;;;;;5052243;28;20023;-88
2021/07/06 07:09:00;;;;;;;1.88;0.52;;;;;;;;;;5052134;28;20112;-88
2021/07/06 07:11:25;;;;;;;2.55;0.60;;;;;;;;;;5052155;28;20441;-88
2021/07/06 07:13:51;;;;;;;1.67;0.60;;;;;;;;;;5052509;28;20013;-88
2021/07/06 07:16:16;;;;;;;2.67;0.80;;;;;;;;;;5052376;28;20021;-89
2021/07/06 07:18:43;;;;;;;2.50;0.70;;;;;;;;;;5052044;28;20028;-88
2021/07/06 07:21:08;;;;;;;7.03;0.80;;;;;;;;;;5052225;28;20150;-88
2021/07/06 07:23:33;;;;;;;5.95;0.65;;;;;;;;;;5052138;28;20033;-88
2021/07/06 07:25:59;;;;;;;5.25;0.60;;;;;;;;;;5051814;28;20111;-88
2021/07/06 07:28:24;;;;;;;1.85;0.80;;;;;;;;;;5051750;28;20426;-89
2021/07/06 07:30:49;;;;;;;5.68;0.45;;;;;;;;;;5052058;28;20017;-88
2021/07/06 07:33:17;;;;;;;1.95;0.70;;;;;;;;;;5053398;28;20353;-89
2021/07/06 07:35:42;;;;;;;5.03;0.70;;;;;;;;;;5052066;28;20122;-88
2021/07/06 07:38:08;;;;;;;4.35;0.70;;;;;;;;;;5052026;28;20496;-88
2021/07/06 07:40:33;;;;;;;4.93;0.60;;;;;;;;;;5052950;28;20033;-89
2021/07/06 07:43:05;;;;;;;8.43;0.82;;;;;;;;;;5052154;28;20476;-89
2021/07/06 07:45:31;;;;;;;5.18;0.75;;;;;;;;;;5051952;28;20120;-88
2021/07/06 07:47:56;;;;;;;4.03;0.73;;;;;;;;;;5052120;28;20076;-89
2021/07/06 07:50:21;;;;;;;2.80;0.80;;;;;;;;;;5051804;28;20028;-88
2021/07/06 07:52:46;;;;;;;8.88;1.13;;;;;;;;;;5051910;28;20063;-89
2021/07/06 07:55:11;;;;;;;4.20;0.80;;;;;;;;;;5051967;28;20024;-88
2021/07/06 07:57:37;;;;;;;5.03;1.40;;;;;;;;;;5054902;28;20025;-88
2021/07/06 08:00:03;;;;;;;5.70;0.80;;;;;;;;;;5056135;28;20055;-89
2021/07/06 08:02:29;;;;;;;6.88;0.70;;;;;;;;;;5056020;28;20029;-89
2021/07/06 08:04:54;;;;;;;5.13;0.98;;;;;;;;;;5055838;28;20537;-88
2021/07/06 08:07:19;;;;;;;9.32;0.75;;;;;;;;;;5055928;28;20155;-90
2021/07/06 08:09:44;;;;;;;8.75;1.58;;;;;;;;;;5056217;28;20111;-89
2021/07/06 08:12:10;;;;;;;8.13;1.02;;;;;;;;;;5055859;28;20025;-89
2021/07/06 08:14:35;;;;;;;8.63;1.30;;;;;;;;;;5055860;28;20025;-90
2021/07/06 08:17:01;;;;;;;6.43;0.80;;;;;;;;;;5055860;28;20013;-90
2021/07/06 08:19:27;;;;;;;5.00;0.93;;;;;;;;;;5055960;28;20025;-90
2021/07/06 08:21:52;;;;;;;4.22;0.98;;;;;;;;;;5055954;28;20025;-90
2021/07/06 08:24:17;;;;;;;2.70;0.70;;;;;;;;;;5056076;28;20020;-90
2021/07/06 08:26:43;;;;;;;11.50;0.98;;;;;;;;;;5055818;28;20408;-90
2021/07/06 08:29:08;;;;;;;6.05;0.77;;;;;;;;;;5054863;28;20384;-90
2021/07/06 08:31:34;;;;;;;6.00;0.98;;;;;;;;;;5056794;28;20142;-89
2021/07/06 08:33:59;;;;;;;4.03;0.90;;;;;;;;;;5056759;28;20013;-87
2021/07/06 08:36:24;;;;;;;7.55;1.05;;;;;;;;;;5055720;28;20456;-88
2021/07/06 08:38:50;;;;;;;3.72;0.75;;;;;;;;;;5054979;28;20024;-87
2021/07/06 08:41:15;;;;;;;11.35;1.20;;;;;;;;;;5056453;28;20036;-88
2021/07/06 08:43:40;;;;;;;5.07;0.88;;;;;;;;;;5055071;28;20090;-87
2021/07/06 08:46:06;;;;;;;9.18;1.20;;;;;;;;;;5055763;28;20036;-87
2021/07/06 08:48:32;;;;;;;4.13;0.63;;;;;;;;;;5054568;28;20530;-87
2021/07/06 08:50:58;;;;;;;2.17;0.80;;;;;;;;;;5054265;28;20040;-87
2021/07/06 08:53:23;;;;;;;5.90;0.73;;;;;;;;;;5054881;28;20021;-87
2021/07/06 08:55:48;;;;;;;5.47;0.82;;;;;;;;;;5054486;28;20032;-87
2021/07/06 08:58:16;;;;;;;6.05;0.85;;;;;;;;;;5054684;28;20495;-87
2021/07/06 09:00:41;;;;;;;6.40;1.23;;;;;;;;;;5054363;28;20119;-88
2021/07/06 09:03:09;;;;;;;2.45;0.70;;;;;;;;;;5055197;28;20464;-90
2021/07/06 09:05:34;;;;;;;8.50;0.57;;;;;;;;;;5055213;28;20029;-91
2021/07/06 09:08:00;;;;;;;5.70;0.80;;;;;;;;;;5055180;28;20083;-90
2021/07/06 09:10:27;;;;;;;4.53;0.85;;;;;;;;;;5055716;28;20025;-91
2021/07/06 09:12:52;;;;;;;4.13;0.70;;;;;;;;;;5056270;28;20021;-91
2021/07/06 09:15:21;;;;;;;7.25;0.50;;;;;;;;;;5055631;28;20016;-91
2021/07/06 09:17:46;;;;;;;7.10;1.25;;;;;;;;;;5055599;28;20017;-90
2021/07/06 09:20:11;;;;;;;13.73;1.23;;;;;;;;;;5054824;28;20480;-91
2021/07/06 09:22:37;;;;;;;2.70;0.50;;;;;;;;;;5055531;28;20043;-90
2021/07/06 09:25:03;;;;;;;4.18;0.70;;;;;;;;;;5056518;28;20040;-90
2021/07/06 09:27:33;;;;;;;3.63;0.65;;;;;;;;;;5055747;28;20041;-91
2021/07/06 09:30:04;;;;;;;8.07;0.95;;;;;;;;;;5055036;28;20028;-91
2021/07/06 09:32:29;;;;;;;9.97;1.23;;;;;;;;;;5053911;28;20441;-91
2021/07/06 09:34:55;;;;;;;7.90;0.60;;;;;;;;;;5055553;28;20293;-90
2021/07/06 09:37:20;;;;;;;6.22;0.55;;;;;;;;;;5055043;28;20017;-90
2021/07/06 09:39:45;;;;;;;4.05;0.88;;;;;;;;;;5055063;28;20017;-90
2021/07/06 09:42:14;;;;;;;11.63;1.13;;;;;;;;;;5054645;28;20028;-91
2021/07/06 09:44:40;;;;;;;5.47;0.90;;;;;;;;;;5055970;28;20052;-91
2021/07/06 09:47:12;;;;;;;10.52;0.50;;;;;;;;;;5055002;28;20017;-90
2021/07/06 09:49:39;;;;;;;4.30;0.70;;;;;;;;;;5053343;28;20028;-90
2021/07/06 09:52:12;;;;;;;2.15;0.60;;;;;;;;;;5052716;28;20033;-91
2021/07/06 09:54:40;;;;;;;6.55;0.90;;;;;;;;;;5054562;28;20078;-92
2021/07/06 09:57:11;;;;;;;15.02;1.35;;;;;;;;;;5055753;28;20133;-91
2021/07/06 09:59:37;;;;;;;12.95;1.52;;;;;;;;;;5054562;28;20489;-92
2021/07/06 10:02:04;;;;;;;6.95;0.68;;;;;;;;;;5054719;28;20048;-91
2021/07/06 10:04:29;;;;;;;7.07;1.10;;;;;;;;;;5055278;28;20021;-92
2021/07/06 10:07:00;;;;;;;9.23;1.90;;;;;;;;;;5054417;28;20021;-91
2021/07/06 10:09:25;;;;;;;7.65;1.00;;;;;;;;;;5052074;28;20059;-91
2021/07/06 10:11:51;;;;;;;8.13;1.27;;;;;;;;;;5053631;28;20052;-91
2021/07/06 10:14:17;;;;;;;15.13;1.58;;;;;;;;;;5054272;28;20464;-90
2021/07/06 10:16:42;;;;;;;9.38;1.05;;;;;;;;;;5053972;28;20132;-91
2021/07/06 10:19:07;;;;;;;5.35;1.10;;;;;;;;;;5054711;28;20021;-90
2021/07/06 10:21:33;;;;;;;9.93;1.58;;;;;;;;;;5054779;28;20053;-91
2021/07/06 10:23:59;;;;;;;13.18;0.90;;;;;;;;;;5054323;28;20527;-91
2021/07/06 10:26:28;;;;;;;13.95;1.42;;;;;;;;;;5054093;28;20021;-91
2021/07/06 10:28:53;;;;;;;5.95;0.80;;;;;;;;;;5054062;28;20029;-91
2021/07/06 10:31:20;;;;;;;4.13;1.00;;;;;;;;;;5054686;28;20499;-91
2021/07/06 10:33:46;;;;;;;13.88;1.52;;;;;;;;;;5053917;28;20021;-91
2021/07/06 10:36:13;;;;;;;2.60;0.60;;;;;;;;;;5053987;28;20017;-91
2021/07/06 10:38:45;;;;;;;6.32;0.95;;;;;;;;;;5053927;28;20372;-90
2021/07/06 10:41:12;;;;;;;7.07;0.65;;;;;;;;;;5053945;28;20036;-92
2021/07/06 10:43:38;;;;;;;5.68;0.95;;;;;;;;;;5053625;28;20047;-92
2021/07/06 10:46:29;;;;;;;4.70;0.75;;;;;;;;;;5053391;28;20082;-91
2021/07/06 10:49:01;;;;;;;3.42;1.05;;;;;;;;;;5049615;28;20468;-92
2021/07/06 10:51:33;;;;;;;0.90;0.28;;;;;;;;;;5053903;28;20012;-92
2021/07/06 10:54:06;;;;;;;9.00;0.95;;;;;;;;;;5054920;28;20020;-92
2021/07/06 10:56:32;;;;;;;11.70;1.30;;;;;;;;;;5053538;28;20028;-92
2021/07/06 10:58:58;;;;;;;5.60;1.30;;;;;;;;;;5053406;28;20047;-91
2021/07/06 11:01:35;;;;;;;9.18;1.35;;;;;;;;;;5052841;28;20021;-92
2021/07/06 11:04:01;;;;;;;12.73;1.45;;;;;;;;;;5052942;28;20021;-91
2021/07/06 11:06:45;;;;;;;13.00;1.40;;;;;;;;;;5053110;28;20032;-90
2021/07/06 11:09:10;;;;;;;10.40;1.30;;;;;;;;;;5054503;28;20020;-92
2021/07/06 11:11:36;;;;;;;7.47;0.77;;;;;;;;;;5052819;28;20031;-92
2021/07/06 11:14:17;;;;;;;12.32;1.33;;;;;;;;;;5053398;28;20079;-92
2021/07/06 11:16:42;;;;;;;10.80;1.60;;;;;;;;;;5053076;28;20547;-91
2021/07/06 11:19:26;;;;;;;5.10;0.98;;;;;;;;;;5053473;28;20056;-92
2021/07/06 11:22:06;;;;;;;4.10;0.90;;;;;;;;;;5049782;28;20098;-92
2021/07/06 11:24:37;;;;;;;9.93;1.25;;;;;;;;;;5053656;28;20495;-93
2021/07/06 11:27:02;;;;;;;6.93;0.90;;;;;;;;;;5053133;28;20013;-92
2021/07/06 11:29:33;;;;;;;7.30;1.10;;;;;;;;;;5052838;28;20017;-93
2021/07/06 11:32:25;;;;;;;5.68;1.25;;;;;;;;;;5052689;28;20021;-91
2021/07/06 11:34:50;;;;;;;4.47;1.00;;;;;;;;;;5052071;28;20025;-91
2021/07/06 11:37:16;;;;;;;5.25;1.10;;;;;;;;;;5052904;28;20052;-92
2021/07/06 11:39:42;;;;;;;8.07;0.70;;;;;;;;;;5052710;28;20021;-92
2021/07/06 11:42:07;;;;;;;8.95;1.50;;;;;;;;;;5052827;28;20118;-91
2021/07/06 11:44:32;;;;;;;4.70;0.65;;;;;;;;;;5052592;28;20034;-91
2021/07/06 11:47:11;;;;;;;7.75;1.17;;;;;;;;;;5052574;28;20028;-93
2021/07/06 11:49:37;;;;;;;6.78;0.93;;;;;;;;;;5052688;28;20049;-94
2021/07/06 11:52:02;;;;;;;13.52;1.48;;;;;;;;;;5052530;28;20036;-94
2021/07/06 11:54:28;;;;;;;2.88;0.65;;;;;;;;;;5052985;28;20049;-92
2021/07/06 11:57:04;;;;;;;4.80;0.90;;;;;;;;;;5052772;28;20058;-92
2021/07/06 11:59:29;;;;;;;0.98;0.28;;;;;;;;;;5053019;28;20028;-92
2021/07/06 12:02:05;;;;;;;8.13;1.20;;;;;;;;;;5052222;28;20388;-92
2021/07/06 12:04:30;;;;;;;1.17;0.52;;;;;;;;;;5045274;28;20476;-92
2021/07/06 12:07:03;;;;;;;8.95;0.73;;;;;;;;;;5052643;28;20024;-92
2021/07/06 12:09:28;;;;;;;2.85;0.65;;;;;;;;;;5053703;28;20028;-93
2021/07/06 12:12:05;;;;;;;1.90;0.70;;;;;;;;;;5052550;28;20017;-93
2021/07/06 12:14:30;;;;;;;7.50;0.88;;;;;;;;;;5052641;28;20021;-92
2021/07/06 12:16:55;;;;;;;3.22;0.77;;;;;;;;;;5052591;28;20048;-93
2021/07/06 12:19:21;;;;;;;4.22;0.90;;;;;;;;;;5052907;28;20028;-92
2021/07/06 12:21:47;;;;;;;9.68;0.77;;;;;;;;;;5052068;28;20017;-93
2021/07/06 12:24:16;;;;;;;6.90;0.70;;;;;;;;;;5052784;28;20139;-93
2021/07/06 12:26:43;;;;;;;4.18;0.80;;;;;;;;;;5052489;28;20032;-92
2021/07/06 12:29:08;;;;;;;10.90;0.77;;;;;;;;;;5052283;28;20099;-93
2021/07/06 12:31:34;;;;;;;5.03;0.60;;;;;;;;;;5053384;28;20104;-91
2021/07/06 12:34:03;;;;;;;8.50;0.73;;;;;;;;;;5052924;28;20021;-93
2021/07/06 12:36:36;;;;;;;7.93;1.80;;;;;;;;;;5052583;28;20028;-93
2021/07/06 12:39:18;;;;;;;4.63;0.65;;;;;;;;;;5052658;28;20461;-92
2021/07/06 12:41:50;;;;;;;11.98;1.27;;;;;;;;;;5053623;28;20016;-92
2021/07/06 12:44:17;;;;;;;4.88;0.88;;;;;;;;;;5054865;28;20060;-94
2021/07/06 12:46:42;;;;;;;2.40;0.70;;;;;;;;;;5057307;28;20017;-93
2021/07/06 12:49:07;;;;;;;3.88;0.65;;;;;;;;;;5055820;28;20020;-93
2021/07/06 12:51:33;;;;;;;6.25;0.80;;;;;;;;;;5055375;28;20488;-91
2021/07/06 12:54:05;;;;;;;7.60;0.80;;;;;;;;;;5056042;28;20032;-92
2021/07/06 12:56:32;;;;;;;10.18;1.10;;;;;;;;;;5056333;28;20477;-92
2021/07/06 12:59:16;;;;;;;5.35;0.80;;;;;;;;;;5055893;28;20021;-93
2021/07/06 13:01:41;;;;;;;4.60;0.77;;;;;;;;;;5056783;28;20394;-91
2021/07/06 13:04:06;;;;;;;9.27;0.80;;;;;;;;;;5055775;28;20028;-92
2021/07/06 13:06:31;;;;;;;1.05;0.40;;;;;;;;;;5055775;28;20025;-92
2021/07/06 13:08:57;;;;;;;4.45;0.63;;;;;;;;;;5055925;28;20017;-95
2021/07/06 13:11:26;;;;;;;7.70;1.10;;;;;;;;;;5055942;28;20036;-93
2021/07/06 13:13:53;;;;;;;6.30;1.10;;;;;;;;;;5057580;28;20021;-92
2021/07/06 13:16:24;;;;;;;35.17;1.50;;;;;;;;;;5056077;28;20360;-92
2021/07/06 13:18:49;;;;;;;2.35;0.45;;;;;;;;;;5055566;28;20024;-92
2021/07/06 13:21:18;;;;;;;9.38;1.05;;;;;;;;;;5056167;28;20024;-93
2021/07/06 13:23:43;;;;;;;11.10;1.02;;;;;;;;;;5056256;28;21297;-91
2021/07/06 13:26:09;;;;;;;8.43;1.00;;;;;;;;;;5055395;28;20048;-93
2021/07/06 13:28:34;;;;;;;6.18;1.17;;;;;;;;;;5055162;28;20021;-92
2021/07/06 13:31:01;;;;;;;6.57;1.13;;;;;;;;;;5055175;28;20032;-90
2021/07/06 13:33:26;;;;;;;7.63;1.13;;;;;;;;;;5055470;28;20016;-92
2021/07/06 13:35:53;;;;;;;2.80;0.50;;;;;;;;;;5055661;28;20013;-89
2021/07/06 13:38:19;;;;;;;4.45;0.70;;;;;;;;;;5055677;28;20114;-89
2021/07/06 13:40:45;;;;;;;13.73;1.38;;;;;;;;;;5054553;28;20037;-90
2021/07/06 13:43:10;;;;;;;5.72;0.90;;;;;;;;;;5054885;28;20035;-90
2021/07/06 13:45:35;;;;;;;7.20;0.80;;;;;;;;;;5054771;28;20025;-90
2021/07/06 13:48:00;;;;;;;5.18;0.85;;;;;;;;;;5055016;28;20032;-88
2021/07/06 13:50:26;;;;;;;6.85;1.00;;;;;;;;;;5054591;28;20021;-90
2021/07/06 13:52:51;;;;;;;2.97;0.50;;;;;;;;;;5054955;28;20021;-89
2021/07/06 13:55:25;;;;;;;8.88;0.80;;;;;;;;;;5054176;28;20111;-90
2021/07/06 13:57:51;;;;;;;3.88;0.57;;;;;;;;;;5054675;28;20492;-91
2021/07/06 14:00:16;;;;;;;5.15;0.95;;;;;;;;;;5054804;28;20025;-91
2021/07/06 14:02:42;;;;;;;7.22;0.90;;;;;;;;;;5054461;28;20032;-92
2021/07/06 14:05:08;;;;;;;9.80;1.10;;;;;;;;;;5055515;28;20021;-91
2021/07/06 14:07:33;;;;;;;2.92;0.90;;;;;;;;;;5054675;28;20079;-91
2021/07/06 14:09:58;;;;;;;11.10;1.15;;;;;;;;;;5054467;28;20450;-91
2021/07/06 14:12:23;;;;;;;6.43;0.90;;;;;;;;;;5054487;28;20407;-90
2021/07/06 14:14:50;;;;;;;5.25;1.00;;;;;;;;;;5054547;28;20435;-90
2021/07/06 14:17:15;;;;;;;3.70;0.63;;;;;;;;;;5055091;28;20479;-90
2021/07/06 14:19:40;;;;;;;3.53;0.68;;;;;;;;;;5053772;28;20029;-90
2021/07/06 14:22:05;;;;;;;6.60;0.73;;;;;;;;;;5055008;28;20025;-90
2021/07/06 14:24:34;;;;;;;4.85;0.82;;;;;;;;;;5054042;28;20021;-90
2021/07/06 14:26:59;;;;;;;12.82;1.13;;;;;;;;;;5053852;28;20104;-90
2021/07/06 14:29:24;;;;;;;9.55;1.45;;;;;;;;;;5054132;28;20047;-90
2021/07/06 14:31:49;;;;;;;3.53;0.70;;;;;;;;;;5053859;28;20053;-90
2021/07/06 14:34:15;;;;;;;5.03;1.17;;;;;;;;;;5054856;28;20471;-90
2021/07/06 14:36:40;;;;;;;5.90;1.20;;;;;;;;;;5053724;28;20020;-90
2021/07/06 14:39:06;;;;;;;11.00;1.63;;;;;;;;;;5054609;28;20016;-91
2021/07/06 14:41:31;;;;;;;7.38;1.20;;;;;;;;;;5053360;28;20103;-91
2021/07/06 14:43:56;;;;;;;9.68;1.17;;;;;;;;;;5053341;28;20464;-92
2021/07/06 14:46:22;;;;;;;7.65;1.17;;;;;;;;;;5053645;28;20025;-91
2021/07/06 14:48:47;;;;;;;5.32;1.27;;;;;;;;;;5053535;28;20025;-91
2021/07/06 14:51:12;;;;;;;3.80;0.90;;;;;;;;;;5053066;28;20058;-90
2021/07/06 14:53:38;;;;;;;5.45;1.17;;;;;;;;;;5053547;28;20102;-91
2021/07/06 14:56:04;;;;;;;11.65;1.73;;;;;;;;;;5053314;28;20013;-90
2021/07/06 14:58:29;;;;;;;11.95;1.20;;;;;;;;;;5053114;28;20104;-91
2021/07/06 15:00:54;;;;;;;16.33;1.73;;;;;;;;;;5052964;28;20116;-90